Time;durP1;ratioP1;P1;durP2;ratioP2;P2;SDS_P1;SDS_P2;PMS_P1;PMS_P2;Temp;Humidity;BMP_temperature;BMP_pressure;BME280_temperature;BME280_humidity;BME280_pressure;Samples;Min_cycle;Max_cycle;Signal;HPM_P1;HPM_P2
2021/10/18 00:00:05;;;;;;;14.03;5.77;;;;;;;;;;6273114;22;20158;-73
2021/10/18 00:02:33;;;;;;;6.77;4.73;;;;;;;;;;6273226;22;20165;-73
2021/10/18 00:04:58;;;;;;;7.53;5.20;;;;;;;;;;6273060;22;20842;-74
2021/10/18 00:07:23;;;;;;;7.40;4.83;;;;;;;;;;6272745;22;20739;-73
2021/10/18 00:09:48;;;;;;;6.70;5.00;;;;;;;;;;6273482;22;20192;-73
2021/10/18 00:12:14;;;;;;;5.57;5.03;;;;;;;;;;6273853;22;20146;-73
2021/10/18 00:14:39;;;;;;;8.00;4.90;;;;;;;;;;6269953;22;20143;-73
2021/10/18 00:17:04;;;;;;;8.93;5.23;;;;;;;;;;6268663;22;20165;-74
2021/10/18 00:19:29;;;;;;;7.03;5.20;;;;;;;;;;6267909;22;20778;-74
2021/10/18 00:21:55;;;;;;;9.13;5.23;;;;;;;;;;6270688;22;20185;-74
2021/10/18 00:24:20;;;;;;;8.40;5.53;;;;;;;;;;6273535;22;20585;-74
2021/10/18 00:26:45;;;;;;;7.70;5.20;;;;;;;;;;6273915;22;20154;-74
2021/10/18 00:29:10;;;;;;;7.63;4.80;;;;;;;;;;6245494;22;20157;-74
2021/10/18 00:31:36;;;;;;;7.90;5.03;;;;;;;;;;6272595;22;20236;-74
2021/10/18 00:34:01;;;;;;;8.40;5.47;;;;;;;;;;6272499;22;20200;-73
2021/10/18 00:36:27;;;;;;;11.10;4.90;;;;;;;;;;6272760;22;20147;-74
2021/10/18 00:38:52;;;;;;;9.30;4.80;;;;;;;;;;6272402;22;20507;-74
2021/10/18 00:41:17;;;;;;;6.57;4.77;;;;;;;;;;6273228;22;20174;-74
2021/10/18 00:43:46;;;;;;;8.77;5.70;;;;;;;;;;6273826;22;20142;-74
2021/10/18 00:46:12;;;;;;;7.83;5.70;;;;;;;;;;6272097;22;20452;-73
2021/10/18 00:48:39;;;;;;;5.90;4.80;;;;;;;;;;6271509;22;20412;-74
2021/10/18 00:51:04;;;;;;;5.97;5.10;;;;;;;;;;6271240;22;20712;-74
2021/10/18 00:53:30;;;;;;;10.00;5.30;;;;;;;;;;6272805;22;20369;-73
2021/10/18 00:55:55;;;;;;;11.03;5.87;;;;;;;;;;6272867;22;20603;-74
2021/10/18 00:58:21;;;;;;;7.50;5.00;;;;;;;;;;6272768;22;20217;-74
2021/10/18 01:00:46;;;;;;;7.50;5.27;;;;;;;;;;6272348;22;20173;-74
2021/10/18 01:03:12;;;;;;;6.27;5.67;;;;;;;;;;6272085;22;20357;-73
2021/10/18 01:05:40;;;;;;;5.73;5.07;;;;;;;;;;6272792;22;20222;-74
2021/10/18 01:08:06;;;;;;;10.30;6.50;;;;;;;;;;6273177;22;20153;-74
2021/10/18 01:10:32;;;;;;;7.70;5.47;;;;;;;;;;6271647;22;20397;-74
2021/10/18 01:12:57;;;;;;;8.33;5.20;;;;;;;;;;6272478;22;20596;-74
2021/10/18 01:15:22;;;;;;;7.13;4.97;;;;;;;;;;6272502;22;20202;-73
2021/10/18 01:17:47;;;;;;;8.93;5.57;;;;;;;;;;6273297;22;20176;-74
2021/10/18 01:20:14;;;;;;;7.27;5.83;;;;;;;;;;6271362;22;20165;-74
2021/10/18 01:22:39;;;;;;;7.10;6.37;;;;;;;;;;6271550;22;20507;-74
2021/10/18 01:25:05;;;;;;;8.60;5.63;;;;;;;;;;6272824;22;20369;-74
2021/10/18 01:27:30;;;;;;;7.83;6.50;;;;;;;;;;6272567;22;20458;-74
2021/10/18 01:29:55;;;;;;;6.70;5.30;;;;;;;;;;6272323;22;20245;-74
2021/10/18 01:32:20;;;;;;;8.10;5.73;;;;;;;;;;6244291;22;20151;-74
2021/10/18 01:34:46;;;;;;;9.50;6.57;;;;;;;;;;6273088;22;20147;-74
2021/10/18 01:37:11;;;;;;;9.00;5.57;;;;;;;;;;6272489;22;20226;-74
2021/10/18 01:39:36;;;;;;;7.27;5.50;;;;;;;;;;6271810;22;20170;-74
2021/10/18 01:42:01;;;;;;;7.93;5.43;;;;;;;;;;6272965;22;20149;-74
2021/10/18 01:44:27;;;;;;;6.93;5.37;;;;;;;;;;6272085;22;20693;-74
2021/10/18 01:46:52;;;;;;;7.83;5.37;;;;;;;;;;6272223;22;20143;-74
2021/10/18 01:49:18;;;;;;;6.67;5.87;;;;;;;;;;6272227;22;20154;-74
2021/10/18 01:51:43;;;;;;;6.60;5.47;;;;;;;;;;6269930;22;20197;-74
2021/10/18 01:54:08;;;;;;;11.50;6.03;;;;;;;;;;6271894;22;20154;-74
2021/10/18 01:56:35;;;;;;;9.23;5.50;;;;;;;;;;6272286;22;20584;-74
2021/10/18 01:59:01;;;;;;;9.20;5.80;;;;;;;;;;6272432;22;20215;-74
2021/10/18 02:01:26;;;;;;;9.23;5.63;;;;;;;;;;6244141;22;20404;-74
2021/10/18 02:03:51;;;;;;;10.53;6.57;;;;;;;;;;6272527;22;20362;-74
2021/10/18 02:06:16;;;;;;;8.57;5.53;;;;;;;;;;6272056;22;20142;-74
2021/10/18 02:08:42;;;;;;;8.03;6.13;;;;;;;;;;6244973;22;20150;-74
2021/10/18 02:11:07;;;;;;;8.73;6.40;;;;;;;;;;6272440;22;20167;-74
2021/10/18 02:13:33;;;;;;;9.30;6.20;;;;;;;;;;6272074;22;20147;-74
2021/10/18 02:15:58;;;;;;;9.10;6.50;;;;;;;;;;6271881;22;20146;-74
2021/10/18 02:18:26;;;;;;;8.67;5.90;;;;;;;;;;6268404;22;20174;-74
2021/10/18 02:20:51;;;;;;;11.07;5.90;;;;;;;;;;6269106;22;20158;-74
2021/10/18 02:23:16;;;;;;;8.93;5.90;;;;;;;;;;6267623;22;20365;-74
2021/10/18 02:25:41;;;;;;;8.53;5.77;;;;;;;;;;6271189;22;20576;-74
2021/10/18 02:28:07;;;;;;;11.37;6.70;;;;;;;;;;6272142;22;20157;-74
2021/10/18 02:30:32;;;;;;;9.23;6.50;;;;;;;;;;6271564;22;20166;-74
2021/10/18 02:32:57;;;;;;;10.47;6.80;;;;;;;;;;6269994;22;20174;-74
2021/10/18 02:35:23;;;;;;;10.60;6.90;;;;;;;;;;6271818;22;20143;-74
2021/10/18 02:37:48;;;;;;;8.10;7.27;;;;;;;;;;6271750;22;20665;-74
2021/10/18 02:40:16;;;;;;;8.57;6.60;;;;;;;;;;6271442;22;20166;-74
2021/10/18 02:42:41;;;;;;;7.03;6.30;;;;;;;;;;6272869;22;20143;-74
2021/10/18 02:45:07;;;;;;;8.03;6.57;;;;;;;;;;6271551;22;20366;-74
2021/10/18 02:47:33;;;;;;;8.77;6.27;;;;;;;;;;6271173;22;20483;-73
2021/10/18 02:49:58;;;;;;;8.27;7.10;;;;;;;;;;6270100;22;20389;-74
2021/10/18 02:52:24;;;;;;;11.10;7.90;;;;;;;;;;6271391;22;20143;-74
2021/10/18 02:54:49;;;;;;;11.10;7.00;;;;;;;;;;6272100;22;20145;-73
2021/10/18 02:57:14;;;;;;;12.57;7.93;;;;;;;;;;6272538;22;20490;-74
2021/10/18 02:59:39;;;;;;;9.77;7.73;;;;;;;;;;6270955;22;20174;-73
2021/10/18 03:02:04;;;;;;;11.97;7.67;;;;;;;;;;6269224;22;20166;-74
2021/10/18 03:04:30;;;;;;;12.80;8.07;;;;;;;;;;6244406;22;20153;-74
2021/10/18 03:06:55;;;;;;;9.10;7.43;;;;;;;;;;6271548;22;20533;-74
2021/10/18 03:09:20;;;;;;;11.37;7.93;;;;;;;;;;6270762;22;20601;-74
2021/10/18 03:11:45;;;;;;;10.33;8.00;;;;;;;;;;6271612;22;20682;-74
2021/10/18 03:14:11;;;;;;;9.97;7.27;;;;;;;;;;6270984;22;20589;-74
2021/10/18 03:16:37;;;;;;;10.47;7.57;;;;;;;;;;6271389;22;20650;-74
2021/10/18 03:19:02;;;;;;;12.30;9.27;;;;;;;;;;6271140;22;20169;-74
2021/10/18 03:21:27;;;;;;;11.73;8.40;;;;;;;;;;6245705;22;20397;-74
2021/10/18 03:23:53;;;;;;;9.80;8.80;;;;;;;;;;6273767;22;20601;-74
2021/10/18 03:26:19;;;;;;;8.83;7.67;;;;;;;;;;6273345;22;20143;-74
2021/10/18 03:28:44;;;;;;;12.47;8.07;;;;;;;;;;6273937;22;20592;-74
2021/10/18 03:31:09;;;;;;;10.63;8.37;;;;;;;;;;6271148;22;20396;-74
2021/10/18 03:33:35;;;;;;;12.30;9.07;;;;;;;;;;6273576;22;20177;-73
2021/10/18 03:36:01;;;;;;;10.63;9.20;;;;;;;;;;6273402;22;20243;-74
2021/10/18 03:38:26;;;;;;;12.20;9.07;;;;;;;;;;6273066;22;20675;-74
2021/10/18 03:40:51;;;;;;;13.50;9.70;;;;;;;;;;6272630;22;20163;-74
2021/10/18 03:43:18;;;;;;;11.23;8.43;;;;;;;;;;6273383;22;20603;-74
2021/10/18 03:45:43;;;;;;;15.83;9.00;;;;;;;;;;6273195;22;20138;-74
2021/10/18 03:48:08;;;;;;;14.23;9.80;;;;;;;;;;6272445;22;20389;-74
2021/10/18 03:50:34;;;;;;;18.17;9.03;;;;;;;;;;6273094;22;20174;-74
2021/10/18 03:52:59;;;;;;;14.73;9.97;;;;;;;;;;6273701;22;20495;-74
2021/10/18 03:55:24;;;;;;;14.00;9.50;;;;;;;;;;6272695;22;20190;-73
2021/10/18 03:57:49;;;;;;;12.27;9.97;;;;;;;;;;6273588;22;20248;-74
2021/10/18 04:00:14;;;;;;;12.40;9.87;;;;;;;;;;6272395;22;20216;-74
2021/10/18 04:02:40;;;;;;;14.37;9.60;;;;;;;;;;6271748;22;20142;-74
2021/10/18 04:05:05;;;;;;;10.93;9.73;;;;;;;;;;6272994;22;20153;-74
2021/10/18 04:07:30;;;;;;;16.63;10.30;;;;;;;;;;6273432;22;20166;-74
2021/10/18 04:09:56;;;;;;;12.30;9.93;;;;;;;;;;6272812;22;20170;-74
2021/10/18 04:12:21;;;;;;;11.10;9.30;;;;;;;;;;6273246;22;20139;-74
2021/10/18 04:14:46;;;;;;;12.30;9.70;;;;;;;;;;6272771;22;20170;-74
2021/10/18 04:17:12;;;;;;;15.30;10.30;;;;;;;;;;6273654;22;20150;-74
2021/10/18 04:19:37;;;;;;;15.67;9.77;;;;;;;;;;6272514;22;20178;-74
2021/10/18 04:22:02;;;;;;;14.70;10.53;;;;;;;;;;6273487;22;20143;-74
2021/10/18 04:24:27;;;;;;;11.90;9.50;;;;;;;;;;6242310;22;20146;-74
2021/10/18 04:26:53;;;;;;;12.30;9.87;;;;;;;;;;6271306;22;20170;-74
2021/10/18 04:29:18;;;;;;;17.60;10.30;;;;;;;;;;6271471;22;20147;-74
2021/10/18 04:31:43;;;;;;;16.40;10.30;;;;;;;;;;6271931;22;20253;-74
2021/10/18 04:34:08;;;;;;;12.47;9.10;;;;;;;;;;6273980;22;20607;-74
2021/10/18 04:36:34;;;;;;;12.97;10.50;;;;;;;;;;6273365;22;20454;-74
2021/10/18 04:38:59;;;;;;;13.30;10.67;;;;;;;;;;6272555;22;20513;-74
2021/10/18 04:41:24;;;;;;;11.87;10.23;;;;;;;;;;6273038;22;20162;-73
2021/10/18 04:43:50;;;;;;;17.20;10.80;;;;;;;;;;6273680;22;20670;-74
2021/10/18 04:46:15;;;;;;;17.50;10.03;;;;;;;;;;6271472;22;20166;-74
2021/10/18 04:48:40;;;;;;;13.83;9.40;;;;;;;;;;6273269;22;20169;-74
2021/10/18 04:51:05;;;;;;;14.10;9.37;;;;;;;;;;6272808;22;20178;-73
2021/10/18 04:53:33;;;;;;;14.47;10.67;;;;;;;;;;6272816;22;20153;-74
2021/10/18 04:55:58;;;;;;;18.30;10.27;;;;;;;;;;6273621;22;20150;-74
2021/10/18 04:58:24;;;;;;;16.97;10.77;;;;;;;;;;6272423;22;20878;-74
2021/10/18 05:00:55;;;;;;;11.77;10.03;;;;;;;;;;6244333;22;20173;-73
2021/10/18 05:03:21;;;;;;;19.53;9.73;;;;;;;;;;6272446;22;20189;-74
2021/10/18 05:05:46;;;;;;;12.63;9.20;;;;;;;;;;6272061;22;20404;-73
2021/10/18 05:08:12;;;;;;;19.83;11.57;;;;;;;;;;6271727;22;20552;-74
2021/10/18 05:10:38;;;;;;;14.17;10.67;;;;;;;;;;6243804;22;20174;-74
2021/10/18 05:13:04;;;;;;;16.80;9.93;;;;;;;;;;6244676;22;20151;-74
2021/10/18 05:15:29;;;;;;;15.50;12.13;;;;;;;;;;6271989;22;20368;-74
2021/10/18 05:17:55;;;;;;;16.30;10.90;;;;;;;;;;6272262;22;20417;-74
2021/10/18 05:20:20;;;;;;;15.30;10.07;;;;;;;;;;6243173;22;20170;-74
2021/10/18 05:22:45;;;;;;;13.63;9.67;;;;;;;;;;6274163;22;20150;-74
2021/10/18 05:25:11;;;;;;;12.03;9.90;;;;;;;;;;6273467;22;20456;-73
2021/10/18 05:27:37;;;;;;;12.40;9.80;;;;;;;;;;6274391;22;20494;-74
2021/10/18 05:30:03;;;;;;;17.20;11.30;;;;;;;;;;6269785;22;20498;-74
2021/10/18 05:32:28;;;;;;;13.07;11.00;;;;;;;;;;6268076;22;20387;-74
2021/10/18 05:34:54;;;;;;;14.57;10.57;;;;;;;;;;6265295;22;20870;-74
2021/10/18 05:37:19;;;;;;;13.50;10.57;;;;;;;;;;6270722;22;20216;-74
2021/10/18 05:39:44;;;;;;;14.93;11.03;;;;;;;;;;6271000;22;20548;-73
2021/10/18 05:42:09;;;;;;;16.83;10.97;;;;;;;;;;6270924;22;20153;-73
2021/10/18 05:44:34;;;;;;;12.60;10.20;;;;;;;;;;6271643;22;20146;-73
2021/10/18 05:47:00;;;;;;;14.30;11.40;;;;;;;;;;6271903;22;20150;-73
2021/10/18 05:49:25;;;;;;;16.17;10.60;;;;;;;;;;6270185;22;20192;-72
2021/10/18 05:51:50;;;;;;;18.50;10.33;;;;;;;;;;6271867;22;20227;-73
2021/10/18 05:54:16;;;;;;;13.30;11.30;;;;;;;;;;6270667;22;20147;-73
2021/10/18 05:56:41;;;;;;;13.50;11.73;;;;;;;;;;6272531;22;20196;-73
2021/10/18 05:59:06;;;;;;;15.40;11.47;;;;;;;;;;6269796;22;20215;-73
2021/10/18 06:01:31;;;;;;;16.77;10.43;;;;;;;;;;6271377;22;20216;-73
2021/10/18 06:03:59;;;;;;;15.87;12.43;;;;;;;;;;6272908;22;20147;-74
2021/10/18 06:06:24;;;;;;;17.27;11.67;;;;;;;;;;6270788;22;20177;-73
2021/10/18 06:08:49;;;;;;;13.87;11.30;;;;;;;;;;6270801;22;20370;-74
2021/10/18 06:11:16;;;;;;;14.23;10.60;;;;;;;;;;6271155;22;20193;-74
2021/10/18 06:13:41;;;;;;;14.50;12.27;;;;;;;;;;6270572;22;20146;-74
2021/10/18 06:16:06;;;;;;;17.80;12.20;;;;;;;;;;6269667;22;20834;-74
2021/10/18 06:18:32;;;;;;;13.73;11.60;;;;;;;;;;6269618;22;20173;-74
2021/10/18 06:20:57;;;;;;;16.53;12.10;;;;;;;;;;6272132;22;20172;-74
2021/10/18 06:23:23;;;;;;;19.93;12.93;;;;;;;;;;6271622;22;20142;-74
2021/10/18 06:25:49;;;;;;;16.53;12.30;;;;;;;;;;6244765;22;20153;-74
2021/10/18 06:28:14;;;;;;;16.00;11.83;;;;;;;;;;6265123;22;20366;-74
2021/10/18 06:30:40;;;;;;;17.40;13.53;;;;;;;;;;6240085;22;20228;-74
2021/10/18 06:33:05;;;;;;;14.90;12.00;;;;;;;;;;6269584;22;20574;-75
2021/10/18 06:35:31;;;;;;;14.90;11.37;;;;;;;;;;6269511;22;20153;-75
2021/10/18 06:37:56;;;;;;;14.43;11.10;;;;;;;;;;6271280;22;20510;-74
2021/10/18 06:40:22;;;;;;;17.00;11.73;;;;;;;;;;6270860;22;20390;-74
2021/10/18 06:42:47;;;;;;;13.77;10.77;;;;;;;;;;6244103;22;20146;-74
2021/10/18 06:45:12;;;;;;;15.67;12.13;;;;;;;;;;6270266;22;20586;-74
2021/10/18 06:47:37;;;;;;;16.03;12.17;;;;;;;;;;6271457;22;20166;-74
2021/10/18 06:50:07;;;;;;;16.90;12.43;;;;;;;;;;6244963;22;20590;-74
2021/10/18 06:52:35;;;;;;;17.90;11.87;;;;;;;;;;6244381;22;20159;-74
2021/10/18 06:55:01;;;;;;;22.27;13.87;;;;;;;;;;6271132;22;20357;-74
2021/10/18 06:57:26;;;;;;;19.23;15.00;;;;;;;;;;6274543;22;20423;-74
2021/10/18 06:59:51;;;;;;;20.73;13.37;;;;;;;;;;6272979;22;20231;-73
2021/10/18 07:02:17;;;;;;;18.80;13.33;;;;;;;;;;6274136;22;20146;-74
2021/10/18 07:04:42;;;;;;;15.47;13.60;;;;;;;;;;6272681;22;20211;-74
2021/10/18 07:07:07;;;;;;;17.77;14.20;;;;;;;;;;6272807;22;20147;-74
2021/10/18 07:09:32;;;;;;;16.63;14.80;;;;;;;;;;6273683;22;20241;-74
2021/10/18 07:11:58;;;;;;;21.07;15.13;;;;;;;;;;6274786;22;20234;-74
2021/10/18 07:14:23;;;;;;;17.90;14.03;;;;;;;;;;6273477;22;20147;-74
2021/10/18 07:16:49;;;;;;;19.57;15.37;;;;;;;;;;6272211;22;20149;-74
2021/10/18 07:19:14;;;;;;;16.03;14.23;;;;;;;;;;6271303;22;20170;-74
2021/10/18 07:21:41;;;;;;;21.30;17.00;;;;;;;;;;6272457;22;20876;-74
2021/10/18 07:24:06;;;;;;;20.30;15.60;;;;;;;;;;6271543;22;20469;-74
2021/10/18 07:26:34;;;;;;;20.60;15.70;;;;;;;;;;6272557;22;20362;-74
2021/10/18 07:29:00;;;;;;;21.27;16.20;;;;;;;;;;6269241;22;20147;-74
2021/10/18 07:31:25;;;;;;;21.67;16.33;;;;;;;;;;6271465;22;20377;-73
2021/10/18 07:33:50;;;;;;;20.07;16.30;;;;;;;;;;6271740;22;20146;-74
2021/10/18 07:36:24;;;;;;;23.43;15.97;;;;;;;;;;6271088;22;20151;-74
2021/10/18 07:38:52;;;;;;;20.00;15.97;;;;;;;;;;6272222;22;20224;-74
2021/10/18 07:41:20;;;;;;;23.23;17.30;;;;;;;;;;6267319;22;20427;-74
2021/10/18 07:43:46;;;;;;;20.37;15.47;;;;;;;;;;6272986;22;20851;-74
2021/10/18 07:46:11;;;;;;;21.57;16.20;;;;;;;;;;6273151;22;20407;-74
2021/10/18 07:48:37;;;;;;;20.17;15.73;;;;;;;;;;6272727;22;20499;-74
2021/10/18 07:51:02;;;;;;;22.70;16.17;;;;;;;;;;6272602;22;20169;-74
2021/10/18 07:53:27;;;;;;;22.97;17.00;;;;;;;;;;6272329;22;20200;-74
2021/10/18 07:55:52;;;;;;;22.53;15.77;;;;;;;;;;6245811;22;20154;-74
2021/10/18 07:58:18;;;;;;;20.00;15.27;;;;;;;;;;6270000;22;20166;-74
2021/10/18 08:00:43;;;;;;;19.20;14.40;;;;;;;;;;6273816;22;20190;-74
2021/10/18 08:03:08;;;;;;;18.03;15.93;;;;;;;;;;6271245;22;20452;-74
2021/10/18 08:05:33;;;;;;;26.43;16.40;;;;;;;;;;6245798;22;20253;-74
2021/10/18 08:07:59;;;;;;;22.70;16.07;;;;;;;;;;6270998;22;20170;-74
2021/10/18 08:10:24;;;;;;;18.60;16.60;;;;;;;;;;6271646;22;20495;-74
2021/10/18 08:12:50;;;;;;;22.93;17.60;;;;;;;;;;6272928;22;20208;-74
2021/10/18 08:15:16;;;;;;;19.00;15.87;;;;;;;;;;6273495;22;20146;-74
2021/10/18 08:17:41;;;;;;;19.60;15.70;;;;;;;;;;6273744;22;20850;-74
2021/10/18 08:20:07;;;;;;;22.70;15.60;;;;;;;;;;6272082;22;20560;-73
2021/10/18 08:22:33;;;;;;;17.73;14.70;;;;;;;;;;6273221;22;20219;-74
2021/10/18 08:24:58;;;;;;;23.80;16.73;;;;;;;;;;6268030;22;20389;-74
2021/10/18 08:27:23;;;;;;;28.20;17.20;;;;;;;;;;6273800;22;20151;-74
2021/10/18 08:29:48;;;;;;;17.03;15.23;;;;;;;;;;6271082;22;20166;-74
2021/10/18 08:32:13;;;;;;;16.87;15.00;;;;;;;;;;6273223;22;20548;-74
2021/10/18 08:34:39;;;;;;;19.70;15.10;;;;;;;;;;6273369;22;20613;-74
2021/10/18 08:37:04;;;;;;;20.20;15.73;;;;;;;;;;6272863;22;20153;-74
2021/10/18 08:42:17;;;;;;;19.83;14.13;;;;;;;;;;6273726;22;20153;-74
2021/10/18 08:44:42;;;;;;;17.40;15.00;;;;;;;;;;6272582;22;20368;-74
2021/10/18 08:47:07;;;;;;;19.30;15.30;;;;;;;;;;6272285;22;20370;-74
2021/10/18 08:49:32;;;;;;;17.30;15.07;;;;;;;;;;6272294;22;20882;-74
2021/10/18 08:52:00;;;;;;;22.07;17.03;;;;;;;;;;6272948;22;20142;-74
2021/10/18 08:54:25;;;;;;;19.20;15.40;;;;;;;;;;6271317;22;20154;-74
2021/10/18 08:56:51;;;;;;;21.43;15.53;;;;;;;;;;6271103;22;20373;-74
2021/10/18 08:59:16;;;;;;;21.57;15.90;;;;;;;;;;6271269;22;20174;-74
2021/10/18 09:01:42;;;;;;;19.47;16.17;;;;;;;;;;6268266;22;20237;-73
2021/10/18 09:04:16;;;;;;;21.33;16.70;;;;;;;;;;6243084;22;20196;-74
2021/10/18 09:06:48;;;;;;;20.13;15.63;;;;;;;;;;6269947;22;20149;-74
2021/10/18 09:09:14;;;;;;;20.83;15.97;;;;;;;;;;6271512;22;20372;-74
2021/10/18 09:11:39;;;;;;;21.53;15.30;;;;;;;;;;6272623;22;20389;-74
2021/10/18 09:14:05;;;;;;;18.13;15.10;;;;;;;;;;6271396;22;20151;-73
2021/10/18 09:16:30;;;;;;;16.90;14.30;;;;;;;;;;6271598;22;20153;-74
2021/10/18 09:19:05;;;;;;;20.50;16.40;;;;;;;;;;6271101;22;20212;-73
2021/10/18 09:21:41;;;;;;;21.77;16.10;;;;;;;;;;6272403;22;20248;-73
2021/10/18 09:24:07;;;;;;;16.90;15.10;;;;;;;;;;6269850;22;20371;-74
2021/10/18 09:26:33;;;;;;;18.40;15.00;;;;;;;;;;6272915;22;20362;-73
2021/10/18 09:29:05;;;;;;;19.03;15.93;;;;;;;;;;6271021;22;20456;-74
2021/10/18 09:31:30;;;;;;;24.13;17.57;;;;;;;;;;6269964;22;20989;-73
2021/10/18 09:34:03;;;;;;;20.77;16.17;;;;;;;;;;6268503;22;20408;-73
2021/10/18 09:36:29;;;;;;;19.60;16.40;;;;;;;;;;6269907;22;20143;-73
2021/10/18 09:39:13;;;;;;;22.97;16.53;;;;;;;;;;6270050;22;20543;-73
2021/10/18 09:41:41;;;;;;;22.70;15.63;;;;;;;;;;6272363;22;20432;-73
2021/10/18 09:44:15;;;;;;;19.13;16.50;;;;;;;;;;6243112;22;20404;-73
2021/10/18 09:46:56;;;;;;;18.40;15.30;;;;;;;;;;6272028;22;20687;-74
2021/10/18 10:54:02;;;;;;;18.20;15.90;;;;;;;;;;6272987;22;20358;-73
2021/10/18 10:56:23;;;;;;;20.07;17.97;;;;;;;;;;6258141;22;20376;-73
2021/10/18 10:58:53;;;;;;;18.53;15.60;;;;;;;;;;6269400;22;20412;-73
2021/10/18 11:01:37;;;;;;;22.73;17.00;;;;;;;;;;6271684;22;20385;-73
2021/10/18 11:04:22;;;;;;;22.83;15.03;;;;;;;;;;6269827;22;20696;-73
2021/10/18 11:06:47;;;;;;;17.60;15.03;;;;;;;;;;6270469;22;20419;-73
2021/10/18 11:09:32;;;;;;;22.63;17.10;;;;;;;;;;6269180;22;20369;-73
2021/10/18 11:11:57;;;;;;;17.53;15.50;;;;;;;;;;6270580;22;20204;-73
2021/10/18 11:14:25;;;;;;;20.63;15.73;;;;;;;;;;6268214;22;20621;-73
2021/10/18 11:16:50;;;;;;;19.80;16.20;;;;;;;;;;6268944;22;20147;-73
2021/10/18 11:19:20;;;;;;;22.40;16.17;;;;;;;;;;6268369;22;20413;-73
2021/10/18 11:21:54;;;;;;;16.90;14.60;;;;;;;;;;6270365;22;20202;-72
2021/10/18 11:24:19;;;;;;;18.40;15.40;;;;;;;;;;6270552;22;20814;-73
2021/10/18 11:26:44;;;;;;;18.40;15.93;;;;;;;;;;6270799;22;20369;-73
2021/10/18 11:29:11;;;;;;;17.53;15.73;;;;;;;;;;6272550;22;20147;-73
2021/10/18 11:31:41;;;;;;;20.87;14.93;;;;;;;;;;6270275;22;20180;-74
2021/10/18 11:34:07;;;;;;;17.63;14.63;;;;;;;;;;6269961;22;20476;-73
2021/10/18 11:36:33;;;;;;;18.20;14.27;;;;;;;;;;6270161;22;20376;-73
2021/10/18 11:39:07;;;;;;;17.30;15.37;;;;;;;;;;6270405;22;20406;-74
2021/10/18 11:41:52;;;;;;;17.60;14.10;;;;;;;;;;6272524;22;20557;-74
2021/10/18 11:44:17;;;;;;;19.80;14.43;;;;;;;;;;6272967;22;20379;-74
2021/10/18 11:46:43;;;;;;;19.20;14.60;;;;;;;;;;6270960;22;20450;-75
2021/10/18 11:49:08;;;;;;;15.40;13.50;;;;;;;;;;6243354;22;20181;-74
2021/10/18 11:51:33;;;;;;;16.10;13.43;;;;;;;;;;6245548;22;20613;-74
2021/10/18 11:53:58;;;;;;;16.90;13.67;;;;;;;;;;6273103;22;20596;-74
2021/10/18 11:56:24;;;;;;;17.07;14.37;;;;;;;;;;6273462;22;20331;-74
2021/10/18 11:58:49;;;;;;;21.20;13.83;;;;;;;;;;6272933;22;20170;-74
2021/10/18 12:01:18;;;;;;;19.03;13.57;;;;;;;;;;6273284;22;20540;-74
2021/10/18 12:03:44;;;;;;;16.73;13.10;;;;;;;;;;6271639;22;20200;-74
2021/10/18 12:06:10;;;;;;;16.50;13.20;;;;;;;;;;6271408;22;20745;-74
2021/10/18 12:08:36;;;;;;;15.33;12.00;;;;;;;;;;6271783;22;20143;-74
2021/10/18 12:13:21;;;;;;;16.53;12.67;;;;;;;;;;5028947;28;20620;-73
2021/10/18 12:15:55;;;;;;;20.77;13.77;;;;;;;;;;4924280;29;20434;-73
2021/10/18 12:18:22;;;;;;;14.93;13.10;;;;;;;;;;4933176;28;20442;-72
2021/10/18 12:20:49;;;;;;;17.93;13.70;;;;;;;;;;4990595;28;20462;-73
2021/10/18 12:23:47;;;;;;;14.63;11.60;;;;;;;;;;5023082;28;24812;-75
2021/10/18 12:26:17;;;;;;;20.60;15.23;;;;;;;;;;5021294;28;20433;-73
2021/10/18 12:29:06;;;;;;;15.23;13.50;;;;;;;;;;5034214;28;20423;-73
2021/10/18 12:31:35;;;;;;;17.80;13.20;;;;;;;;;;5025168;28;20501;-73
2021/10/18 12:34:21;;;;;;;14.77;13.23;;;;;;;;;;5034657;28;20431;-73
2021/10/18 12:36:55;;;;;;;16.93;13.33;;;;;;;;;;5028107;28;20455;-73
2021/10/18 12:39:30;;;;;;;14.23;12.30;;;;;;;;;;5031406;28;20571;-73
2021/10/18 12:41:56;;;;;;;19.27;13.70;;;;;;;;;;5032298;28;20434;-73
2021/10/18 12:44:27;;;;;;;16.37;12.50;;;;;;;;;;5033082;28;20442;-73
2021/10/18 12:46:53;;;;;;;14.30;11.87;;;;;;;;;;5030107;28;20184;-73
2021/10/18 12:49:27;;;;;;;14.23;12.70;;;;;;;;;;5029389;28;20493;-73
2021/10/18 12:51:52;;;;;;;15.97;11.33;;;;;;;;;;5030602;28;20204;-73
2021/10/18 12:54:22;;;;;;;16.57;12.53;;;;;;;;;;5021959;28;21159;-73
2021/10/18 12:56:56;;;;;;;13.00;11.43;;;;;;;;;;5030863;28;20208;-73
2021/10/18 12:59:21;;;;;;;13.33;11.90;;;;;;;;;;5028307;28;20427;-73
2021/10/18 13:01:46;;;;;;;13.23;11.80;;;;;;;;;;5030685;28;20458;-73
2021/10/18 13:04:15;;;;;;;18.80;11.97;;;;;;;;;;5032134;28;20786;-73
2021/10/18 13:06:40;;;;;;;16.50;12.53;;;;;;;;;;5029201;28;20239;-72
2021/10/18 13:09:06;;;;;;;14.33;12.20;;;;;;;;;;5029974;28;20439;-74
2021/10/18 13:11:31;;;;;;;14.93;12.87;;;;;;;;;;5033033;28;20261;-72
2021/10/18 13:13:56;;;;;;;13.37;11.00;;;;;;;;;;5031159;28;20175;-72
2021/10/18 13:16:21;;;;;;;14.07;11.63;;;;;;;;;;5032640;28;20176;-73
2021/10/18 13:18:48;;;;;;;16.90;12.10;;;;;;;;;;5035082;28;20207;-73
2021/10/18 13:21:14;;;;;;;14.10;11.70;;;;;;;;;;5033593;28;20576;-73
2021/10/18 13:23:40;;;;;;;12.83;10.80;;;;;;;;;;5016618;28;20439;-72
2021/10/18 13:26:05;;;;;;;18.03;12.50;;;;;;;;;;5020268;28;20716;-73
2021/10/18 13:28:30;;;;;;;14.37;12.00;;;;;;;;;;5020454;28;20196;-73
2021/10/18 13:30:55;;;;;;;15.03;11.80;;;;;;;;;;5017719;28;20204;-73
2021/10/18 13:33:21;;;;;;;15.30;12.53;;;;;;;;;;5019572;28;20189;-73
2021/10/18 13:35:47;;;;;;;14.03;12.37;;;;;;;;;;5018133;28;20396;-73
2021/10/18 13:38:12;;;;;;;14.60;12.27;;;;;;;;;;5019325;28;20514;-73
2021/10/18 13:40:39;;;;;;;14.53;11.53;;;;;;;;;;5027355;28;20204;-72
2021/10/18 13:43:06;;;;;;;14.37;11.27;;;;;;;;;;5016563;28;20191;-73
2021/10/18 13:45:31;;;;;;;12.80;10.40;;;;;;;;;;5018425;28;20467;-73
2021/10/18 13:47:57;;;;;;;17.77;12.23;;;;;;;;;;5017612;28;20466;-72
2021/10/18 13:50:23;;;;;;;13.80;11.50;;;;;;;;;;5015927;28;20216;-73
2021/10/18 13:52:52;;;;;;;13.63;11.10;;;;;;;;;;5020247;28;20243;-73
2021/10/18 13:55:18;;;;;;;13.20;11.53;;;;;;;;;;5020647;28;20427;-72
2021/10/18 13:57:43;;;;;;;12.77;11.40;;;;;;;;;;5016239;28;20485;-72
2021/10/18 14:00:09;;;;;;;13.80;12.30;;;;;;;;;;5018681;28;20276;-72
2021/10/18 14:02:35;;;;;;;15.57;11.63;;;;;;;;;;5017563;28;20648;-72
2021/10/18 14:05:01;;;;;;;17.37;12.50;;;;;;;;;;5020052;28;20591;-72
2021/10/18 14:07:26;;;;;;;15.03;11.90;;;;;;;;;;5016651;28;20431;-72
2021/10/18 14:09:51;;;;;;;13.63;10.57;;;;;;;;;;5020958;28;20200;-72
2021/10/18 14:12:16;;;;;;;17.10;12.70;;;;;;;;;;5012953;28;20649;-72
2021/10/18 14:14:42;;;;;;;13.10;11.20;;;;;;;;;;5014765;28;20176;-72
2021/10/18 14:17:07;;;;;;;14.30;12.00;;;;;;;;;;5016361;28;20602;-72
2021/10/18 14:19:33;;;;;;;16.57;11.23;;;;;;;;;;5012310;28;20190;-72
2021/10/18 14:21:58;;;;;;;12.43;11.17;;;;;;;;;;5016774;28;20192;-73
2021/10/18 14:24:24;;;;;;;12.97;10.97;;;;;;;;;;5017075;28;20679;-72
2021/10/18 14:26:49;;;;;;;14.03;11.27;;;;;;;;;;5020492;28;20177;-72
2021/10/18 14:29:14;;;;;;;14.27;11.83;;;;;;;;;;5020034;28;20191;-73
2021/10/18 14:31:40;;;;;;;15.17;11.47;;;;;;;;;;5013045;28;20274;-72
2021/10/18 14:34:05;;;;;;;14.10;11.23;;;;;;;;;;5017477;28;20272;-72
2021/10/18 14:36:31;;;;;;;15.23;11.50;;;;;;;;;;5022051;28;20219;-72
2021/10/18 14:38:56;;;;;;;12.47;11.17;;;;;;;;;;5023535;28;20621;-72
2021/10/18 14:41:26;;;;;;;12.13;10.70;;;;;;;;;;5020255;28;20215;-72
2021/10/18 14:43:53;;;;;;;13.03;10.73;;;;;;;;;;5015938;28;20185;-73
2021/10/18 14:46:22;;;;;;;13.70;10.03;;;;;;;;;;5014883;28;20438;-72
2021/10/18 14:48:48;;;;;;;13.10;10.90;;;;;;;;;;5008543;28;20470;-73
2021/10/18 14:51:13;;;;;;;17.60;11.33;;;;;;;;;;5011305;28;20563;-73
2021/10/18 14:53:38;;;;;;;14.83;10.00;;;;;;;;;;5017416;28;20176;-73
2021/10/18 14:56:04;;;;;;;13.20;11.63;;;;;;;;;;5012569;28;20196;-73
2021/10/18 14:58:29;;;;;;;10.97;9.53;;;;;;;;;;5015719;28;20188;-73
2021/10/18 15:00:54;;;;;;;18.40;10.73;;;;;;;;;;5019548;28;20200;-73
2021/10/18 15:03:20;;;;;;;10.37;8.30;;;;;;;;;;5013807;28;20796;-73
2021/10/18 15:05:45;;;;;;;11.07;9.80;;;;;;;;;;5015733;28;20185;-73
2021/10/18 15:08:10;;;;;;;13.50;10.53;;;;;;;;;;5018486;28;21045;-73
2021/10/18 15:10:35;;;;;;;10.50;9.00;;;;;;;;;;5011758;28;20201;-73
2021/10/18 15:13:03;;;;;;;14.23;9.07;;;;;;;;;;5011780;28;20207;-73
2021/10/18 15:15:28;;;;;;;12.10;10.53;;;;;;;;;;5018770;28;20660;-73
2021/10/18 15:17:54;;;;;;;22.73;10.50;;;;;;;;;;5010842;28;20447;-74
2021/10/18 15:20:20;;;;;;;15.93;10.33;;;;;;;;;;5019843;28;20196;-75
2021/10/18 15:22:46;;;;;;;10.27;9.23;;;;;;;;;;5022475;28;20432;-75
2021/10/18 15:25:12;;;;;;;14.43;10.13;;;;;;;;;;5016837;28;20454;-74
2021/10/18 15:27:38;;;;;;;13.70;10.10;;;;;;;;;;5018663;28;20208;-74